Domov               UVHVVR             MKGP            O straneh              
ZDRAVSTVENO VARSTVO RASTLIN
  MREŽA AGROMET. POSTAJ
 ► PROGNOSTIČNA OBVESTILA
AGROMETEOROLOŠKI PODATKI -
ARSO
OBVLADOVANJE TVEGANJ ZARADI
NEUGODNIH VREMENSKIH RAZMER
  ► NARAVNE NESREČE
  ► SUŠA/MOČA
  ► NAMAKANJE
  ► ŽLED (gozdarstvo)
KARTOGRAFSKI PRIKAZI
SPLETNE POVEZAVE
PROJEKTI IN PUBLIKACIJE

AGROMETEOROLOŠKA MREŽA: VREMENSKE POSTAJE IN FENOLOŠKA OPAZOVANJA

Pregled podatkov za lokacijo Blanca, meteorološka postaja 48319

Pregled senzorjev na lokaciji

ID Ime Zadnja
vrednost
Datum
zadnje
spremembe
Tip
senzorja
4340 Omočenost lista (U) 0 U 26.3.2019 18:29 A730WET
4456 Padavine (mm) 0 mm 26.3.2019 18:30 Generic 0.2 mm
4372 Relativna vlaga 2 m (% RH) 40,65 % RH 26.3.2019 18:29 Generic 0 - 100 %
4371 Temperatura 2 m (°C) 10,71 °C 26.3.2019 18:30 Generic -40 - +60 °C
4461 Smer vetra (°) 141,23 ° 26.3.2019 18:29 Generic 0 - 360
4460 Hitrost vetra (km/h) 2,34 km/h 26.3.2019 18:29 Generic 200 km/h

Pregled podatkov zadnjih 24 ur

Zap.
št.
Datum in čas Blanca
Omočenost
lista
Padavine Relativna
vlaga
2
m
Temperatura
2
m
Smer
vetra
Hitrost
vetra
1 26.3.2019 17:30 0 0 40,7 10,7 141,2 2,3
2 26.3.2019 17:00 0 0 41,5 10,3 105,6 3,2
3 26.3.2019 16:30 0 0 39,6 11,3 87,8 3,4
4 26.3.2019 16:00 0 0 39,8 11 206,7 4,2
5 26.3.2019 15:30 0 0 41,4 10,6 195 4,4
6 26.3.2019 15:00 0 0 41,1 11,3 95,3 6,3
7 26.3.2019 14:30 0 0 40,9 11 19,9 4,9
8 26.3.2019 14:00 0 0 42,3 11,3 96,9 5,4
9 26.3.2019 13:30 0 0 45,3 10,1 183 3,4
10 26.3.2019 13:00 0 0 45,8 10,2 306,4 4,4
11 26.3.2019 12:30 0 0 48,7 9,4 98,2 5,4
12 26.3.2019 12:00 0 0 48,8 9,5 126 6,1
13 26.3.2019 11:30 0 0 50,4 9,3 68,5 5,6
14 26.3.2019 11:00 0 0 53,6 8,4 33,7 5,3
15 26.3.2019 10:30 0 0 53,9 7,9 56 9,3
16 26.3.2019 10:00 0 0 55,8 7,9 58,4 5
17 26.3.2019 09:30 3 0 58,8 7,9 49,8 4,4
18 26.3.2019 09:00 10 0 65 7,2 154,9 3,5
19 26.3.2019 08:30 10 0 72,6 6,8 119,9 2,3
20 26.3.2019 08:00 10 0 77,3 6,1 165 1
21 26.3.2019 07:30 10 0 87,9 4,9 119,8 1,6
22 26.3.2019 07:00 10 0 99,8 2,9 151 0,4
23 26.3.2019 06:30 10 0 99,7 2,4 161,1 0,2
24 26.3.2019 06:00 10 0 99,6 2,5 51,1 0,1
25 26.3.2019 05:30 10 0 99,6 2,6 10 0,5
26 26.3.2019 05:00 10 0 99,5 2,5 210,6 0,3
27 26.3.2019 04:30 10 0 99,3 2,4 239,5 0,2
28 26.3.2019 04:00 10 0 99 2,5 330,5 1,3
29 26.3.2019 03:30 10 0 98,8 2,7 350,8 1,4
30 26.3.2019 03:00 10 0 98,6 2,7 328,9 0,7
31 26.3.2019 02:30 10 0 98,1 2,7 3,5 0,6
32 26.3.2019 02:00 10 0 97,9 2,7 333,7 2,3
33 26.3.2019 01:30 10 0 97,2 2,7 294,2 0,8
34 26.3.2019 01:00 10 0 97,1 2,7 331,4 3,6
35 26.3.2019 00:30 10 0 97,4 2,8 345,8 3,4
36 26.3.2019 00:00 10 0 97,8 2,7 12,8 1,4
37 25.3.2019 23:30 10 0 97,9 2,8 31,4 3,3
38 25.3.2019 23:00 7 0,2 97,3 2,9 309 2,2
39 25.3.2019 22:30 4 1,2 96,9 3,1 344,4 2,6
40 25.3.2019 22:00 3 1,2 97,6 3,2 7 0,4
41 25.3.2019 21:30 2 1 97,3 3,3 69,9 0,5
42 25.3.2019 21:00 2 1,4 97 3,4 151,3 1,1
43 25.3.2019 20:30 3 2,4 96,3 3,6 29,7 1,8
44 25.3.2019 20:00 3 2 93,8 4 213,8 1,4
45 25.3.2019 19:30 7 1,6 92,3 4,3 54,9 1,6
46 25.3.2019 19:00 10 1,6 90,9 5,5 124,3 2,9
47 25.3.2019 18:30 10 1,6 87,1 7 85,5 4,4
48 25.3.2019 18:00 10 0,4 82,1 8,5 68,9 3,2
© 2011 Ministrstvo za kmetijstvo, gozdarstvo in prehrano. Vse pravice pridržane.